createdAt,value
2018-09-02T00:02:08.332Z,3.83
2018-09-02T00:04:35.885Z,4.00
2018-09-02T00:07:04.047Z,4.50
2018-09-02T00:09:32.257Z,3.13
2018-09-02T00:12:00.463Z,3.60
2018-09-02T00:14:28.119Z,3.30
2018-09-02T00:16:55.663Z,3.50
2018-09-02T00:19:23.308Z,3.90
2018-09-02T00:21:50.855Z,3.30
2018-09-02T00:24:19.188Z,4.40
2018-09-02T00:26:46.782Z,3.40
2018-09-02T00:29:14.640Z,5.30
2018-09-02T00:31:42.217Z,4.57
2018-09-02T00:34:09.741Z,3.40
2018-09-02T00:36:37.641Z,3.07
2018-09-02T00:39:07.608Z,3.27
2018-09-02T00:41:36.320Z,3.23
2018-09-02T00:44:03.848Z,3.43
2018-09-02T00:46:31.876Z,3.40
2018-09-02T00:49:00.664Z,3.50
2018-09-02T00:51:28.405Z,4.23
2018-09-02T00:53:55.942Z,4.70
2018-09-02T00:56:23.772Z,4.07
2018-09-02T00:58:51.380Z,4.10
2018-09-02T01:01:19.503Z,3.60
2018-09-02T01:03:47.378Z,4.00
2018-09-02T01:06:14.880Z,5.00
2018-09-02T01:08:43.228Z,5.13
2018-09-02T01:11:11.263Z,5.90
2018-09-02T01:13:38.812Z,6.43
2018-09-02T01:16:06.391Z,7.77
2018-09-02T01:18:34.007Z,6.17
2018-09-02T01:21:01.559Z,4.97
2018-09-02T01:23:29.134Z,5.60
2018-09-02T01:25:57.015Z,4.33
2018-09-02T01:28:25.183Z,3.70
2018-09-02T01:30:52.698Z,4.27
2018-09-02T01:33:20.207Z,4.60
2018-09-02T01:35:48.075Z,3.70
2018-09-02T01:38:16.063Z,5.17
2018-09-02T01:40:43.916Z,6.53
2018-09-02T01:43:11.902Z,5.60
2018-09-02T01:45:39.796Z,4.47
2018-09-02T01:48:07.307Z,6.23
2018-09-02T01:50:35.215Z,6.63
2018-09-02T01:53:02.769Z,7.70
2018-09-02T01:55:30.265Z,7.00
2018-09-02T01:57:57.779Z,7.10
2018-09-02T02:00:25.331Z,6.90
2018-09-02T02:02:53.372Z,7.30
2018-09-02T02:05:20.929Z,6.73
2018-09-02T02:07:48.719Z,6.70
2018-09-02T02:10:16.531Z,6.80
2018-09-02T02:12:44.399Z,9.30
2018-09-02T02:15:11.915Z,6.90
2018-09-02T02:17:39.452Z,6.93
2018-09-02T02:20:07.095Z,5.80
2018-09-02T02:22:35.489Z,6.30
2018-09-02T02:25:03.399Z,6.70
2018-09-02T02:27:31.275Z,6.23
2018-09-02T02:30:00.503Z,6.10
2018-09-02T02:32:28.119Z,6.97
2018-09-02T02:34:56.615Z,8.83
2018-09-02T02:37:25.384Z,8.87
2018-09-02T02:39:53.398Z,11.67
2018-09-02T02:42:21.780Z,8.63
2018-09-02T02:44:49.443Z,9.17
2018-09-02T02:47:18.734Z,9.23
2018-09-02T02:49:46.420Z,7.87
2018-09-02T02:52:13.915Z,6.30
2018-09-02T02:54:41.495Z,8.60
2018-09-02T02:57:09.983Z,10.00
2018-09-02T02:59:38.071Z,8.77
2018-09-02T03:02:05.715Z,7.63
2018-09-02T03:04:33.820Z,6.33
2018-09-02T03:07:01.332Z,6.80
2018-09-02T03:09:28.869Z,7.80
2018-09-02T03:11:56.788Z,6.80
2018-09-02T03:14:25.825Z,6.13
2018-09-02T03:16:53.448Z,6.77
2018-09-02T03:19:21.016Z,5.37
2018-09-02T03:21:48.539Z,4.80
2018-09-02T03:24:16.404Z,5.57
2018-09-02T03:26:43.927Z,5.70
2018-09-02T03:29:11.760Z,6.80
2018-09-02T03:31:39.255Z,6.40
2018-09-02T03:34:06.756Z,6.03
2018-09-02T03:36:34.838Z,6.37
2018-09-02T03:39:04.552Z,6.57
2018-09-02T03:41:32.508Z,5.80
2018-09-02T03:44:00.071Z,7.77
2018-09-02T03:46:27.597Z,6.40
2018-09-02T03:48:55.175Z,5.93
2018-09-02T03:51:23.277Z,6.60
2018-09-02T03:53:50.791Z,6.93
2018-09-02T03:56:18.638Z,6.57
2018-09-02T03:58:46.167Z,5.67
2018-09-02T04:01:13.733Z,8.60
2018-09-02T04:03:41.805Z,6.40
2018-09-02T04:06:09.341Z,5.33
2018-09-02T04:08:36.902Z,5.50
2018-09-02T04:11:04.944Z,7.20
2018-09-02T04:13:32.823Z,5.67
2018-09-02T04:16:00.782Z,6.37
2018-09-02T04:18:28.330Z,6.10
2018-09-02T04:20:55.812Z,9.33
2018-09-02T04:23:23.335Z,8.53
2018-09-02T04:25:51.199Z,5.83
2018-09-02T04:28:19.072Z,6.30
2018-09-02T04:30:46.568Z,5.70
2018-09-02T04:33:14.079Z,6.20
2018-09-02T04:35:42.052Z,6.13
2018-09-02T04:38:10.167Z,5.60
2018-09-02T04:40:38.024Z,11.20
2018-09-02T04:43:05.540Z,9.07
2018-09-02T04:45:33.616Z,7.27
2018-09-02T04:48:01.140Z,8.57
2018-09-02T04:50:28.636Z,8.60
2018-09-02T04:52:56.141Z,7.00
2018-09-02T04:55:24.151Z,9.10
2018-09-02T04:57:51.682Z,9.10
2018-09-02T05:00:19.559Z,7.90
2018-09-02T05:02:47.026Z,9.93
2018-09-02T05:05:14.553Z,10.30
2018-09-02T05:07:42.100Z,12.10
2018-09-02T05:10:09.607Z,10.23
2018-09-02T05:12:37.684Z,9.33
2018-09-02T05:15:05.313Z,10.30
2018-09-02T05:17:33.555Z,12.10
2018-09-02T05:20:01.166Z,9.10
2018-09-02T05:22:29.193Z,10.30
2018-09-02T05:24:57.172Z,12.53
2018-09-02T05:27:24.737Z,10.30
2018-09-02T05:29:52.807Z,9.13
2018-09-02T05:32:21.515Z,7.60
2018-09-02T05:34:49.396Z,7.13
2018-09-02T05:37:17.457Z,7.87
2018-09-02T05:39:44.943Z,7.83
2018-09-02T05:42:13.004Z,7.00
2018-09-02T05:44:41.157Z,9.60
2018-09-02T05:47:08.984Z,10.73
2018-09-02T05:49:36.493Z,9.33
2018-09-02T05:52:04.734Z,11.43
2018-09-02T05:54:32.289Z,8.97
2018-09-02T05:57:00.196Z,8.37
2018-09-02T05:59:27.866Z,10.10
2018-09-02T06:01:55.364Z,10.37
2018-09-02T06:04:22.903Z,14.10
2018-09-02T06:06:50.462Z,12.77
2018-09-02T06:09:18.412Z,12.30
2018-09-02T06:11:46.576Z,10.40
2018-09-02T06:14:14.135Z,12.13
2018-09-02T06:16:41.932Z,10.60
2018-09-02T06:19:09.472Z,8.10
2018-09-02T06:21:37.015Z,8.23
2018-09-02T06:24:05.172Z,7.10
2018-09-02T06:26:32.689Z,7.73
2018-09-02T06:29:00.647Z,8.43
2018-09-02T06:31:28.484Z,7.27
2018-09-02T06:33:56.455Z,9.60
2018-09-02T06:36:24.436Z,11.00
2018-09-02T06:38:52.493Z,9.50
2018-09-02T06:41:20.947Z,8.40
2018-09-02T06:43:48.560Z,9.10
2018-09-02T06:46:16.076Z,10.30
2018-09-02T06:48:43.665Z,10.67
2018-09-02T06:51:11.480Z,9.20
2018-09-02T06:53:39.573Z,8.93
2018-09-02T06:56:07.697Z,10.47
2018-09-02T06:58:35.611Z,11.20
2018-09-02T07:01:03.480Z,9.87
2018-09-02T07:03:31.016Z,10.07
2018-09-02T07:05:58.888Z,7.97
2018-09-02T07:08:26.975Z,6.90
2018-09-02T07:10:55.142Z,7.10
2018-09-02T07:13:23.310Z,7.07
2018-09-02T07:15:50.920Z,6.67
2018-09-02T07:18:18.407Z,6.70
2018-09-02T07:20:45.953Z,6.50
2018-09-02T07:23:13.455Z,8.73
2018-09-02T07:25:43.573Z,8.03
2018-09-02T07:28:15.585Z,6.80
2018-09-02T07:30:43.520Z,5.53
2018-09-02T07:33:11.149Z,6.67
2018-09-02T07:35:38.717Z,7.93
2018-09-02T07:38:06.700Z,6.90
2018-09-02T07:40:34.676Z,7.80
2018-09-02T07:43:02.185Z,6.30
2018-09-02T07:45:29.703Z,5.53
2018-09-02T07:47:57.876Z,4.80
2018-09-02T07:50:25.405Z,4.67
2018-09-02T07:52:53.765Z,4.70
2018-09-02T07:55:21.380Z,5.10
2018-09-02T07:57:49.501Z,5.13
2018-09-02T08:00:17.007Z,3.87
2018-09-02T08:02:44.557Z,4.30
2018-09-02T08:05:12.432Z,3.10
2018-09-02T08:07:39.979Z,3.20
2018-09-02T08:10:08.802Z,2.43
2018-09-02T08:12:37.164Z,2.80
2018-09-02T08:15:05.265Z,2.90
2018-09-02T08:17:32.788Z,3.00
2018-09-02T08:20:00.554Z,3.57
2018-09-02T08:22:28.861Z,2.90
2018-09-02T08:24:56.486Z,2.93
2018-09-02T08:27:25.589Z,2.30
2018-09-02T08:29:53.605Z,2.40
2018-09-02T08:32:21.132Z,1.97
2018-09-02T08:34:48.639Z,2.50
2018-09-02T08:37:16.708Z,2.40
2018-09-02T08:39:44.748Z,2.77
2018-09-02T08:42:12.256Z,2.30
2018-09-02T08:44:40.164Z,3.00
2018-09-02T08:47:07.679Z,3.30
2018-09-02T08:49:36.263Z,3.67
2018-09-02T08:52:04.261Z,3.47
2018-09-02T08:54:31.766Z,3.83
2018-09-02T08:57:00.489Z,3.77
2018-09-02T08:59:28.047Z,3.90
2018-09-02T09:01:55.552Z,3.13
2018-09-02T09:04:23.514Z,3.00
2018-09-02T09:06:51.466Z,4.80
2018-09-02T09:09:19.143Z,4.13
2018-09-02T09:11:47.078Z,3.00
2018-09-02T09:14:15.045Z,2.97
2018-09-02T09:16:42.743Z,3.50
2018-09-02T09:19:10.217Z,2.00
2018-09-02T09:21:37.852Z,1.83
2018-09-02T09:24:06.079Z,1.90
2018-09-02T09:26:34.037Z,2.10
2018-09-02T09:29:01.956Z,2.10
2018-09-02T09:31:29.500Z,2.20
2018-09-02T09:33:57.436Z,2.20
2018-09-02T09:36:24.944Z,3.00
2018-09-02T09:38:52.868Z,1.97
2018-09-02T09:41:21.145Z,2.30
2018-09-02T09:43:49.048Z,2.93
2018-09-02T09:46:16.612Z,3.47
2018-09-02T09:48:44.479Z,2.80
2018-09-02T09:51:12.566Z,2.70
2018-09-02T09:53:40.140Z,2.80
2018-09-02T09:56:07.838Z,2.10
2018-09-02T09:58:35.956Z,1.80
2018-09-02T10:01:03.504Z,2.33
2018-09-02T10:03:31.082Z,2.43
2018-09-02T10:05:58.622Z,2.40
2018-09-02T10:08:26.712Z,1.60
2018-09-02T10:10:54.621Z,1.93
2018-09-02T10:13:22.783Z,2.53
2018-09-02T10:15:50.792Z,2.90
2018-09-02T10:18:19.090Z,2.43
2018-09-02T10:20:47.060Z,5.20
2018-09-02T10:23:15.046Z,3.40
2018-09-02T10:25:43.484Z,6.80
2018-09-02T10:28:11.759Z,4.90
2018-09-02T10:30:40.158Z,3.10
2018-09-02T10:33:07.764Z,2.10
2018-09-02T10:35:35.677Z,2.60
2018-09-02T10:38:03.924Z,2.37
2018-09-02T10:40:34.028Z,3.53
2018-09-02T10:43:02.021Z,3.07
2018-09-02T10:45:30.566Z,3.50
2018-09-02T10:47:58.112Z,2.97
2018-09-02T10:50:25.670Z,2.50
2018-09-02T10:52:53.255Z,2.20
2018-09-02T10:55:21.257Z,3.47
2018-09-02T10:57:48.782Z,3.13
2018-09-02T11:00:16.301Z,4.20
2018-09-02T11:02:43.837Z,3.70
2018-09-02T11:05:11.360Z,3.57
2018-09-02T11:07:39.037Z,4.00
2018-09-02T11:10:06.706Z,4.50
2018-09-02T11:12:35.117Z,5.37
2018-09-02T11:15:03.215Z,4.20
2018-09-02T11:17:31.092Z,3.37
2018-09-02T11:19:59.036Z,4.13
2018-09-02T11:22:27.034Z,3.87
2018-09-02T11:24:54.547Z,3.30
2018-09-02T11:27:22.080Z,4.47
2018-09-02T11:29:50.015Z,3.40
2018-09-02T11:32:17.581Z,3.50
2018-09-02T11:34:45.792Z,3.80
2018-09-02T11:37:13.678Z,3.80
2018-09-02T11:39:42.897Z,3.60
2018-09-02T11:42:10.956Z,3.80
2018-09-02T11:44:38.824Z,3.83
2018-09-02T11:47:06.336Z,3.40
2018-09-02T11:49:34.597Z,3.93
2018-09-02T11:52:03.128Z,3.90
2018-09-02T11:54:30.620Z,3.90
2018-09-02T11:56:58.141Z,4.00
2018-09-02T11:59:25.799Z,3.33
2018-09-02T12:01:53.334Z,4.10
2018-09-02T12:04:20.951Z,3.13
2018-09-02T12:06:48.514Z,2.80
2018-09-02T12:09:16.088Z,2.37
2018-09-02T12:11:44.216Z,2.70
2018-09-02T12:14:12.970Z,2.13
2018-09-02T12:16:41.279Z,2.60
2018-09-02T12:19:09.105Z,3.17
2018-09-02T12:21:36.676Z,2.50
2018-09-02T12:24:04.279Z,1.93
2018-09-02T12:26:32.229Z,2.70
2018-09-02T12:29:00.336Z,2.57
2018-09-02T12:31:27.876Z,2.73
2018-09-02T12:33:56.039Z,2.17
2018-09-02T12:36:24.028Z,2.60
2018-09-02T12:38:52.495Z,3.00
2018-09-02T12:41:20.572Z,2.63
2018-09-02T12:43:48.743Z,2.73
2018-09-02T12:46:16.279Z,2.60
2018-09-02T12:48:44.929Z,2.80
2018-09-02T12:51:12.843Z,2.53
2018-09-02T12:53:40.743Z,2.57
2018-09-02T12:56:08.285Z,2.50
2018-09-02T12:58:36.268Z,2.80
2018-09-02T13:01:05.122Z,2.53
2018-09-02T13:03:32.913Z,2.40
2018-09-02T13:06:00.431Z,2.50
2018-09-02T13:08:27.948Z,3.00
2018-09-02T13:10:56.031Z,2.60
2018-09-02T13:13:24.315Z,2.70
2018-09-02T13:15:52.652Z,2.70
2018-09-02T13:18:20.460Z,3.00
2018-09-02T13:20:48.940Z,2.80
2018-09-02T13:23:16.803Z,3.13
2018-09-02T13:25:44.807Z,2.40
2018-09-02T13:28:12.335Z,2.60
2018-09-02T13:30:40.653Z,2.67
2018-09-02T13:33:08.740Z,2.97
2018-09-02T13:35:36.269Z,3.13
2018-09-02T13:38:04.871Z,2.60
2018-09-02T13:40:34.120Z,2.73
2018-09-02T13:43:01.747Z,2.87
2018-09-02T13:45:29.247Z,2.80
2018-09-02T13:47:57.400Z,2.30
2018-09-02T13:50:24.951Z,2.83
2018-09-02T13:52:52.514Z,2.63
2018-09-02T13:55:20.040Z,2.30
2018-09-02T13:57:47.564Z,2.47
2018-09-02T14:00:15.565Z,3.40
2018-09-02T14:02:43.109Z,2.63
2018-09-02T14:05:10.965Z,2.93
2018-09-02T14:07:38.529Z,2.77
2018-09-02T14:10:06.764Z,3.03
2018-09-02T14:12:35.269Z,2.67
2018-09-02T14:15:04.021Z,2.80
2018-09-02T14:17:32.352Z,2.97
2018-09-02T14:20:00.183Z,2.37
2018-09-02T14:22:27.745Z,2.17
2018-09-02T14:24:55.757Z,3.03
2018-09-02T14:27:23.935Z,2.17
2018-09-02T14:29:51.910Z,2.43
2018-09-02T14:32:20.101Z,3.10
2018-09-02T14:34:48.688Z,2.80
2018-09-02T14:37:16.876Z,2.87
2018-09-02T14:39:44.786Z,2.50
2018-09-02T14:42:12.306Z,1.97
2018-09-02T14:44:40.213Z,2.73
2018-09-02T14:47:07.729Z,2.63
2018-09-02T14:49:35.309Z,3.23
2018-09-02T14:52:02.875Z,2.60
2018-09-02T14:54:30.407Z,2.50
2018-09-02T14:56:58.014Z,2.47
2018-09-02T14:59:25.565Z,2.50
2018-09-02T15:01:53.743Z,2.00
2018-09-02T15:04:21.247Z,2.57
2018-09-02T15:06:48.948Z,1.93
2018-09-02T15:09:17.972Z,3.33
2018-09-02T15:11:45.832Z,2.30
2018-09-02T15:14:13.735Z,2.43
2018-09-02T15:16:42.220Z,2.70
2018-09-02T15:19:09.817Z,3.10
2018-09-02T15:21:37.454Z,2.80
2018-09-02T15:24:05.380Z,2.60
2018-09-02T15:26:32.914Z,2.63
2018-09-02T15:29:01.069Z,2.43
2018-09-02T15:31:28.580Z,2.57
2018-09-02T15:33:56.535Z,2.60
2018-09-02T15:36:24.062Z,2.30
2018-09-02T15:38:52.134Z,2.33
2018-09-02T15:41:20.208Z,2.27
2018-09-02T15:43:48.413Z,2.53
2018-09-02T15:46:15.927Z,2.70
2018-09-02T15:48:43.636Z,3.00
2018-09-02T15:51:11.185Z,2.53
2018-09-02T15:53:39.364Z,2.50
2018-09-02T15:56:07.005Z,2.50
2018-09-02T15:58:34.564Z,2.63
2018-09-02T16:01:02.753Z,2.87
2018-09-02T16:03:30.277Z,2.43
2018-09-02T16:05:58.289Z,2.53
2018-09-02T16:08:26.205Z,2.50
2018-09-02T16:10:54.670Z,2.40
2018-09-02T16:13:22.839Z,2.10
2018-09-02T16:15:50.452Z,2.70
2018-09-02T16:18:18.044Z,2.60
2018-09-02T16:20:45.703Z,3.30
2018-09-02T16:23:13.217Z,2.77
2018-09-02T16:25:41.327Z,4.60
2018-09-02T16:28:08.855Z,2.80
2018-09-02T16:30:37.045Z,2.90
2018-09-02T16:33:05.197Z,4.13
2018-09-02T16:35:32.712Z,4.10
2018-09-02T16:38:00.616Z,3.90
2018-09-02T16:40:29.477Z,3.90
2018-09-02T16:42:57.687Z,3.13
2018-09-02T16:45:25.215Z,3.73
2018-09-02T16:47:53.182Z,4.73
2018-09-02T16:50:20.697Z,3.17
2018-09-02T16:52:48.307Z,4.03
2018-09-02T16:55:16.476Z,3.60
2018-09-02T16:57:44.052Z,4.07
2018-09-02T17:00:11.584Z,3.00
2018-09-02T17:02:39.215Z,3.20
2018-09-02T17:05:17.316Z,2.80
2018-09-02T17:07:45.644Z,3.50
2018-09-02T17:10:13.244Z,3.13
2018-09-02T17:12:41.266Z,10.33
2018-09-02T17:15:09.528Z,4.10
2018-09-02T17:17:37.103Z,3.60
2018-09-02T17:20:05.079Z,4.13
2018-09-02T17:22:33.559Z,3.60
2018-09-02T17:25:01.149Z,3.60
2018-09-02T17:27:28.660Z,2.80
2018-09-02T17:29:56.720Z,2.50
2018-09-02T17:32:25.271Z,2.80
2018-09-02T17:34:52.833Z,3.20
2018-09-02T17:37:20.836Z,3.30
2018-09-02T17:39:48.734Z,3.17
2018-09-02T17:42:17.273Z,2.30
2018-09-02T17:44:44.816Z,1.93
2018-09-02T17:47:12.728Z,2.83
2018-09-02T17:49:40.285Z,3.57
2018-09-02T17:52:07.867Z,3.40
2018-09-02T17:54:36.355Z,6.67
2018-09-02T17:57:04.655Z,3.67
2018-09-02T17:59:32.247Z,1.80
2018-09-02T18:02:01.057Z,1.80
2018-09-02T18:04:29.132Z,1.50
2018-09-02T18:06:56.780Z,1.30
2018-09-02T18:09:24.295Z,1.47
2018-09-02T18:11:52.370Z,1.47
2018-09-02T18:14:19.959Z,1.53
2018-09-02T18:16:47.542Z,1.37
2018-09-02T18:19:15.452Z,1.40
2018-09-02T18:21:43.455Z,1.13
2018-09-02T18:24:11.441Z,1.50
2018-09-02T18:26:39.416Z,1.37
2018-09-02T18:29:07.375Z,1.53
2018-09-02T18:31:35.135Z,1.23
2018-09-02T18:34:02.673Z,1.40
2018-09-02T18:36:32.304Z,1.80
2018-09-02T18:39:00.405Z,1.90
2018-09-02T18:41:28.436Z,2.17
2018-09-02T18:43:56.016Z,3.43
2018-09-02T18:46:24.671Z,2.40
2018-09-02T18:48:52.556Z,1.90
2018-09-02T18:51:20.117Z,1.60
2018-09-02T18:53:48.020Z,1.37
2018-09-02T18:56:15.777Z,1.50
2018-09-02T18:58:43.393Z,1.20
2018-09-02T19:01:12.839Z,1.50
2018-09-02T19:03:40.999Z,1.30
2018-09-02T19:06:09.092Z,1.60
2018-09-02T19:08:37.751Z,1.40
2018-09-02T19:11:06.391Z,1.40
2018-09-02T19:13:34.953Z,1.00
2018-09-02T19:16:02.913Z,1.30
2018-09-02T19:18:31.203Z,1.40
2018-09-02T19:20:59.713Z,1.67
2018-09-02T19:23:27.946Z,1.67
2018-09-02T19:25:55.614Z,1.50
2018-09-02T19:28:23.177Z,1.60
2018-09-02T19:30:51.027Z,1.60
2018-09-02T19:33:19.590Z,1.50
2018-09-02T19:35:47.459Z,1.47
2018-09-02T19:38:16.108Z,1.47
2018-09-02T19:40:44.090Z,2.03
2018-09-02T19:43:12.043Z,1.60
2018-09-02T19:45:39.865Z,1.83
2018-09-02T19:48:07.539Z,1.93
2018-09-02T19:50:35.764Z,2.90
2018-09-02T19:53:03.332Z,2.40
2018-09-02T19:55:30.976Z,2.50
2018-09-02T19:57:59.800Z,1.53
2018-09-02T20:00:27.824Z,1.60
2018-09-02T20:02:56.192Z,2.10
2018-09-02T20:05:24.050Z,2.37
2018-09-02T20:07:52.433Z,3.27
2018-09-02T20:10:20.943Z,2.30
2018-09-02T20:12:49.676Z,3.10
2018-09-02T20:15:18.437Z,2.53
2018-09-02T20:17:47.569Z,2.07
2018-09-02T20:20:15.553Z,1.60
2018-09-02T20:22:43.904Z,2.60
2018-09-02T20:25:11.852Z,2.17
2018-09-02T20:27:39.631Z,2.67
2018-09-02T20:30:09.070Z,2.60
2018-09-02T20:32:37.039Z,2.30
2018-09-02T20:35:05.180Z,1.90
2018-09-02T20:37:33.194Z,2.20
2018-09-02T20:40:01.337Z,1.90
2018-09-02T20:42:30.239Z,2.13
2018-09-02T20:44:58.297Z,1.80
2018-09-02T20:47:26.391Z,2.20
2018-09-02T20:49:53.986Z,1.90
2018-09-02T20:52:21.656Z,1.60
2018-09-02T20:54:50.420Z,1.67
2018-09-02T20:57:18.455Z,2.10
2018-09-02T20:59:46.912Z,4.40
2018-09-02T21:02:14.526Z,4.00
2018-09-02T21:04:42.228Z,5.83
2018-09-02T21:07:10.110Z,8.57
2018-09-02T21:09:37.844Z,6.40
2018-09-02T21:12:06.687Z,6.00
2018-09-02T21:14:34.247Z,3.43
2018-09-02T21:17:01.889Z,2.43
2018-09-02T21:19:30.596Z,2.43
2018-09-02T21:21:59.623Z,2.03
2018-09-02T21:24:27.718Z,2.70
2018-09-02T21:26:56.055Z,2.60
2018-09-02T21:29:24.700Z,1.83
2018-09-02T21:31:53.814Z,2.57
2018-09-02T21:34:21.683Z,2.20
2018-09-02T21:36:49.967Z,1.90
2018-09-02T21:39:18.217Z,1.90
2018-09-02T21:41:46.613Z,2.77
2018-09-02T21:44:14.140Z,3.40
2018-09-02T21:46:42.492Z,3.40
2018-09-02T21:49:10.303Z,4.20
2018-09-02T21:51:37.843Z,3.80
2018-09-02T21:54:06.127Z,4.00
2018-09-02T21:56:33.727Z,3.70
2018-09-02T21:59:01.996Z,3.43
2018-09-02T22:01:29.599Z,3.87
2018-09-02T22:03:57.142Z,3.00
2018-09-02T22:06:24.840Z,2.50
2018-09-02T22:08:52.415Z,2.70
2018-09-02T22:11:20.532Z,3.30
2018-09-02T22:13:48.039Z,2.87
2018-09-02T22:16:16.248Z,2.10
2018-09-02T22:18:44.246Z,3.27
2018-09-02T22:21:11.796Z,4.00
2018-09-02T22:23:40.511Z,2.80
2018-09-02T22:26:08.772Z,2.90
2018-09-02T22:28:36.330Z,2.90
2018-09-02T22:31:04.739Z,2.40
2018-09-02T22:33:32.320Z,2.70
2018-09-02T22:36:01.174Z,2.40
2018-09-02T22:38:29.162Z,2.20
2018-09-02T22:40:57.196Z,4.10
2018-09-02T22:43:24.676Z,6.47
2018-09-02T22:45:53.223Z,5.03
2018-09-02T22:48:21.468Z,5.73
2018-09-02T22:50:49.134Z,5.50
2018-09-02T22:53:17.227Z,6.47
2018-09-02T22:55:44.735Z,7.70
2018-09-02T22:58:12.676Z,6.40
2018-09-02T23:00:40.191Z,4.53
2018-09-02T23:03:07.744Z,5.10
2018-09-02T23:05:35.294Z,4.73
2018-09-02T23:08:02.804Z,4.40
2018-09-02T23:10:31.911Z,4.50
2018-09-02T23:13:00.712Z,4.77
2018-09-02T23:15:28.540Z,4.83
2018-09-02T23:17:56.060Z,6.50
2018-09-02T23:20:23.627Z,5.43
2018-09-02T23:22:51.255Z,4.87
2018-09-02T23:25:18.931Z,4.10
2018-09-02T23:27:46.844Z,4.43
2018-09-02T23:30:14.798Z,6.07
2018-09-02T23:32:42.592Z,7.23
2018-09-02T23:35:10.071Z,6.30
2018-09-02T23:37:38.004Z,8.60
2018-09-02T23:40:06.038Z,7.60
2018-09-02T23:42:33.549Z,5.93
2018-09-02T23:45:01.060Z,7.37
2018-09-02T23:47:28.991Z,9.93
2018-09-02T23:49:57.118Z,9.17
2018-09-02T23:52:25.372Z,7.40
2018-09-02T23:54:52.959Z,7.90
2018-09-02T23:57:20.500Z,7.40
2018-09-02T23:59:49.005Z,9.03
